Main page
METAR-TAF:

METAR-TAF

Airports :

Lydd, England

Lydd Airport

latitude: 50-57N, longitude: 000-56E, elevation: 3 m

Current weather observation

The report was made 23 minutes ago, at 01:50 UTC
Wind 9 kt from the Northwest
Temperature 1°C
Humidity 100%
Pressure 1023 hPa
Visibility: 8000 m

METAR: EGMD 170150Z AUTO 32009KT 8000 NCD 01/01 Q1023

Time: 02:13 (02:13 UTC)

Forecast

The report was made 3 hours and 13 minutes ago, at 23:00 UTC
Forecast valid from 17 at 00 UTC to 17 at 09 UTC
Wind 7 kt from the Northwest
Visibility 10 km or more
Few clouds at a height of 1500 ft
Scattered clouds at a height of 2000 ft
Becoming
from 17 at 00 UTC to 17 at 03 UTC
Visibility: 2000 m
Broken clouds at a height of 200 ft
mist
Probability 40%
from 17 at 00 UTC to 17 at 03 UTC
Visibility: 0300 m
fog
Becoming
from 17 at 03 UTC to 17 at 06 UTC
Visibility: 0300 m
freezing fog

TAF: EGMD 162300Z 1700/1709 32007KT 9999 FEW015 SCT020 BECMG 1700/1703 2000 BR BKN002 PROB40 1700/1703 0300 FG VV/// BECMG 1703/1706 0300 FZFG VV///

Weather observations and forecasts of more than 4000 airports (METAR and TAF reports).

The available stations are represented by yellow and red dots on the map.

Hover mouse over dot to see the name of the station.

Then click to see weather observations and forecasts.

To change the map : click on the green buttons with a black cross to zoom in, on the green button with a dash to zoom out, or on the green arrows for adjacent maps.


METAR-TAF: